BTK6081 YPPH-WIII
Flight info
| Callsign | BTK6081 |
|---|---|
| Flight time | N/A |
| Altitude | 38000 |
| Route | AVNEX Y15 ESDEG Q587 METUM G222 SAPDA A585 IPKON |
| Aircraft | A320/M-SDE3FGHIRWY/LB1 |
Departure
| Time | 2026-04-30 18:31 |
|---|---|
| Airport | Perth International Airport (YPPH) |
Arrival
| Time | N/A |
|---|---|
| Airport | Soekarno-Hatta International Airport (WIII) |
| Time | Latitude | Longitude | Altitude | Speed | Heading |
|---|---|---|---|---|---|
| 2026-04-30 17:54 | -31.94018 | 115.97378 | 67 ft | 0 kts | 162° |
| 2026-04-30 18:04 | -31.93952 | 115.97362 | 63 ft | 3 kts | 164° |
| 2026-04-30 18:05 | -31.93937 | 115.97275 | 62 ft | 4 kts | 61° |
| 2026-04-30 18:06 | -31.93950 | 115.97247 | 62 ft | 0 kts | 63° |
| 2026-04-30 18:08 | -31.94018 | 115.97378 | 69 ft | 0 kts | 162° |
| 2026-04-30 18:16 | -31.93972 | 115.97366 | 59 ft | 4 kts | 173° |
| 2026-04-30 18:17 | -31.93946 | 115.97361 | 63 ft | 4 kts | 162° |
| 2026-04-30 18:17 | -31.93924 | 115.97346 | 60 ft | 4 kts | 120° |
| 2026-04-30 18:17 | -31.93928 | 115.97295 | 60 ft | 3 kts | 62° |
| 2026-04-30 18:18 | -31.93940 | 115.97267 | 66 ft | 4 kts | 61° |
| 2026-04-30 18:18 | -31.93950 | 115.97247 | 62 ft | 0 kts | 63° |
| 2026-04-30 18:21 | -31.93946 | 115.97254 | 61 ft | 6 kts | 63° |
| 2026-04-30 18:21 | -31.93899 | 115.97349 | 62 ft | 14 kts | 40° |
| 2026-04-30 18:21 | -31.93821 | 115.97338 | 61 ft | 10 kts | 332° |
| 2026-04-30 18:22 | -31.93709 | 115.97258 | 62 ft | 31 kts | 328° |
| 2026-04-30 18:22 | -31.93312 | 115.97065 | 63 ft | 20 kts | 14° |
| 2026-04-30 18:22 | -31.93193 | 115.97101 | 64 ft | 16 kts | 13° |
| 2026-04-30 18:23 | -31.93101 | 115.97127 | 59 ft | 12 kts | 13° |
| 2026-04-30 18:23 | -31.93035 | 115.97147 | 63 ft | 8 kts | 16° |
| 2026-04-30 18:23 | -31.92991 | 115.97159 | 63 ft | 7 kts | 7° |
| 2026-04-30 18:23 | -31.92950 | 115.97145 | 64 ft | 5 kts | 310° |
| 2026-04-30 18:24 | -31.92934 | 115.97098 | 61 ft | 0 kts | 284° |
| 2026-04-30 18:28 | -31.92933 | 115.97097 | 61 ft | 1 kts | 284° |
| 2026-04-30 18:29 | -31.92920 | 115.97038 | 60 ft | 9 kts | 284° |
| 2026-04-30 18:29 | -31.92900 | 115.96838 | 61 ft | 8 kts | 219° |
| 2026-04-30 18:30 | -31.92927 | 115.96826 | 64 ft | 0 kts | 195° |
| 2026-04-30 18:30 | -31.93292 | 115.96724 | 63 ft | 87 kts | 194° |
| 2026-04-30 18:31 | -31.94077 | 115.96497 | 66 ft | 142 kts | 194° |
| 2026-04-30 18:31 | -31.96343 | 115.95844 | 928 ft | 171 kts | 194° |
| 2026-04-30 18:32 | -31.98647 | 115.95142 | 2241 ft | 182 kts | 193° |
| 2026-04-30 18:32 | -31.99949 | 115.94767 | 2561 ft | 203 kts | 193° |
| 2026-04-30 18:32 | -32.02572 | 115.93005 | 3686 ft | 243 kts | 241° |
| 2026-04-30 18:33 | -32.02881 | 115.91023 | 4644 ft | 252 kts | 268° |
| 2026-04-30 18:33 | -32.02289 | 115.86903 | 6566 ft | 258 kts | 279° |
| 2026-04-30 18:33 | -32.01889 | 115.84860 | 7414 ft | 260 kts | 278° |
| 2026-04-30 18:34 | -32.01509 | 115.82768 | 8330 ft | 261 kts | 277° |
| 2026-04-30 18:34 | -32.00849 | 115.78559 | 10150 ft | 262 kts | 274° |
| 2026-04-30 18:34 | -32.00546 | 115.76361 | 10501 ft | 284 kts | 274° |
| 2026-04-30 18:35 | -32.00235 | 115.73971 | 10770 ft | 304 kts | 274° |
| 2026-04-30 18:35 | -31.99911 | 115.71467 | 11388 ft | 312 kts | 274° |
| 2026-04-30 18:35 | -31.99581 | 115.68930 | 12119 ft | 316 kts | 274° |
| 2026-04-30 18:36 | -31.98771 | 115.63765 | 13566 ft | 325 kts | 277° |
| 2026-04-30 18:36 | -31.98281 | 115.61150 | 14238 ft | 329 kts | 278° |
| 2026-04-30 18:36 | -31.97265 | 115.55843 | 15482 ft | 336 kts | 278° |
| 2026-04-30 18:37 | -31.96733 | 115.53144 | 16093 ft | 342 kts | 281° |
| 2026-04-30 18:37 | -31.95828 | 115.50514 | 16690 ft | 352 kts | 292° |
| 2026-04-30 18:37 | -31.94688 | 115.47949 | 17274 ft | 356 kts | 292° |
| 2026-04-30 18:37 | -31.93523 | 115.45359 | 17870 ft | 361 kts | 295° |
| 2026-04-30 18:38 | -31.92009 | 115.42940 | 18440 ft | 373 kts | 307° |
| 2026-04-30 18:38 | -31.89999 | 115.40933 | 18939 ft | 386 kts | 321° |
| 2026-04-30 18:38 | -31.87598 | 115.39505 | 19433 ft | 400 kts | 334° |
| 2026-04-30 18:38 | -31.84928 | 115.38494 | 19923 ft | 405 kts | 336° |
| 2026-04-30 18:39 | -31.82227 | 115.37497 | 20418 ft | 408 kts | 336° |
| 2026-04-30 18:39 | -31.79509 | 115.36495 | 20909 ft | 411 kts | 336° |
| 2026-04-30 18:39 | -31.76758 | 115.35478 | 21376 ft | 415 kts | 336° |
| 2026-04-30 18:39 | -31.73923 | 115.34674 | 21847 ft | 425 kts | 346° |
| 2026-04-30 18:40 | -31.70945 | 115.34456 | 22305 ft | 435 kts | 358° |
| 2026-04-30 18:40 | -31.67905 | 115.34870 | 22761 ft | 443 kts | 8° |
| 2026-04-30 18:40 | -31.64909 | 115.35875 | 23207 ft | 450 kts | 18° |
| 2026-04-30 18:40 | -31.62083 | 115.37406 | 23644 ft | 456 kts | 26° |
| 2026-04-30 18:41 | -31.59261 | 115.39133 | 24040 ft | 458 kts | 25° |
| 2026-04-30 18:41 | -31.56485 | 115.40818 | 25005 ft | 440 kts | 25° |
| 2026-04-30 18:41 | -31.53823 | 115.42430 | 26157 ft | 420 kts | 25° |
| 2026-04-30 18:41 | -31.51289 | 115.43963 | 27340 ft | 399 kts | 24° |
| 2026-04-30 18:42 | -31.48860 | 115.45431 | 28244 ft | 389 kts | 24° |
| 2026-04-30 18:42 | -31.44061 | 115.48326 | 29243 ft | 388 kts | 24° |
| 2026-04-30 18:42 | -31.41654 | 115.49776 | 29626 ft | 390 kts | 24° |
| 2026-04-30 18:45 | -31.16848 | 115.64725 | 32822 ft | 412 kts | 22° |
| 2026-04-30 18:45 | -31.14292 | 115.66264 | 33117 ft | 415 kts | 22° |
| 2026-04-30 18:45 | -31.11718 | 115.67813 | 33406 ft | 417 kts | 22° |
| 2026-04-30 18:46 | -31.09133 | 115.69368 | 33699 ft | 418 kts | 21° |
| 2026-04-30 18:46 | -31.06573 | 115.70904 | 33934 ft | 421 kts | 21° |
| 2026-04-30 18:46 | -31.03960 | 115.72466 | 34191 ft | 423 kts | 21° |
| 2026-04-30 18:46 | -31.01333 | 115.74033 | 34421 ft | 425 kts | 21° |
| 2026-04-30 18:47 | -30.98695 | 115.75607 | 34644 ft | 427 kts | 21° |
| 2026-04-30 18:47 | -30.96048 | 115.77195 | 34848 ft | 429 kts | 21° |
| 2026-04-30 18:47 | -30.93390 | 115.78788 | 35036 ft | 431 kts | 21° |
| 2026-04-30 18:47 | -30.90712 | 115.80390 | 35231 ft | 433 kts | 20° |
| 2026-04-30 18:48 | -30.88027 | 115.81993 | 35427 ft | 435 kts | 20° |
| 2026-04-30 18:48 | -30.85329 | 115.83601 | 35629 ft | 436 kts | 20° |
| 2026-04-30 18:48 | -30.82564 | 115.85015 | 35823 ft | 431 kts | 12° |
| 2026-04-30 18:48 | -30.79707 | 115.85986 | 36003 ft | 425 kts | 4° |
| 2026-04-30 18:49 | -30.76800 | 115.86521 | 36155 ft | 420 kts | 356° |
| 2026-04-30 18:49 | -30.73884 | 115.86813 | 36335 ft | 421 kts | 356° |
| 2026-04-30 18:49 | -30.70957 | 115.87107 | 36519 ft | 423 kts | 356° |
| 2026-04-30 18:49 | -30.68020 | 115.87404 | 36704 ft | 424 kts | 356° |
| 2026-04-30 18:50 | -30.65115 | 115.87700 | 36881 ft | 426 kts | 356° |
| 2026-04-30 18:50 | -30.62157 | 115.88003 | 37059 ft | 427 kts | 356° |
| 2026-04-30 18:50 | -30.59197 | 115.88310 | 37215 ft | 429 kts | 356° |
| 2026-04-30 18:50 | -30.56217 | 115.88617 | 37357 ft | 431 kts | 356° |
| 2026-04-30 18:51 | -30.53224 | 115.88924 | 37515 ft | 432 kts | 356° |
| 2026-04-30 18:51 | -30.50220 | 115.89233 | 37670 ft | 433 kts | 356° |
| 2026-04-30 18:51 | -30.47212 | 115.89541 | 37835 ft | 435 kts | 356° |
| 2026-04-30 18:51 | -30.44196 | 115.89847 | 37991 ft | 436 kts | 355° |
| 2026-04-30 18:52 | -30.41167 | 115.90155 | 38148 ft | 437 kts | 355° |
| 2026-04-30 18:52 | -30.35049 | 115.90780 | 38182 ft | 446 kts | 355° |
| 2026-04-30 18:53 | -30.28809 | 115.91417 | 38178 ft | 455 kts | 356° |
| 2026-04-30 18:53 | -30.22452 | 115.92085 | 38177 ft | 460 kts | 356° |
| 2026-04-30 18:54 | -30.16076 | 115.92739 | 38175 ft | 460 kts | 356° |
| 2026-04-30 18:54 | -30.09688 | 115.93393 | 38178 ft | 461 kts | 355° |
| 2026-04-30 18:55 | -30.03295 | 115.94044 | 38175 ft | 461 kts | 355° |
| 2026-04-30 18:55 | -29.93706 | 115.95017 | 38187 ft | 461 kts | 355° |
| 2026-04-30 18:56 | -29.84161 | 115.95974 | 38189 ft | 461 kts | 355° |
| 2026-04-30 18:57 | -29.74575 | 115.96952 | 38180 ft | 461 kts | 355° |
| 2026-04-30 18:57 | -29.68191 | 115.97601 | 38181 ft | 460 kts | 355° |
| 2026-04-30 18:58 | -29.59701 | 115.98457 | 38176 ft | 460 kts | 355° |
| 2026-04-30 18:59 | -29.50137 | 115.99431 | 38177 ft | 460 kts | 354° |
| 2026-04-30 19:00 | -29.37395 | 116.00699 | 38171 ft | 459 kts | 354° |
| 2026-04-30 19:01 | -29.24667 | 116.01966 | 38167 ft | 459 kts | 354° |
| 2026-04-30 19:02 | -29.15281 | 116.02001 | 38170 ft | 445 kts | 345° |
| 2026-04-30 19:03 | -29.02920 | 116.01172 | 38172 ft | 445 kts | 345° |
| 2026-04-30 19:04 | -28.90562 | 116.00368 | 38170 ft | 445 kts | 344° |
| 2026-04-30 19:05 | -28.78207 | 115.99563 | 38159 ft | 445 kts | 344° |
| 2026-04-30 19:06 | -28.65885 | 115.98769 | 38163 ft | 444 kts | 343° |
| 2026-04-30 19:06 | -28.56579 | 115.98151 | 38162 ft | 445 kts | 343° |
| 2026-04-30 19:07 | -28.47352 | 115.97543 | 38163 ft | 445 kts | 343° |
| 2026-04-30 19:08 | -28.34996 | 115.96755 | 38159 ft | 445 kts | 343° |
| 2026-04-30 19:09 | -28.25726 | 115.96157 | 38160 ft | 444 kts | 343° |
| 2026-04-30 19:09 | -28.19554 | 115.95762 | 38161 ft | 444 kts | 342° |
| 2026-04-30 19:10 | -28.07225 | 115.94970 | 38161 ft | 443 kts | 342° |
| 2026-04-30 19:11 | -27.97997 | 115.94370 | 38156 ft | 442 kts | 342° |
| 2026-04-30 19:12 | -27.91854 | 115.93966 | 38153 ft | 442 kts | 342° |
| 2026-04-30 19:12 | -27.85709 | 115.93576 | 38151 ft | 442 kts | 341° |
| 2026-04-30 19:13 | -27.73442 | 115.92795 | 38152 ft | 441 kts | 341° |
| 2026-04-30 19:14 | -27.67362 | 115.92403 | 38147 ft | 440 kts | 341° |
| 2026-04-30 19:14 | -27.61243 | 115.92015 | 38142 ft | 440 kts | 341° |
| 2026-04-30 19:15 | -27.55090 | 115.91619 | 38131 ft | 440 kts | 341° |
| 2026-04-30 19:15 | -27.45965 | 115.91041 | 38132 ft | 439 kts | 340° |
| 2026-04-30 19:16 | -27.39857 | 115.90647 | 38132 ft | 439 kts | 340° |
| 2026-04-30 19:17 | -27.30656 | 115.90072 | 38129 ft | 440 kts | 341° |
| 2026-04-30 19:17 | -27.21534 | 115.89498 | 38118 ft | 439 kts | 340° |
| 2026-04-30 19:18 | -27.12379 | 115.88915 | 38124 ft | 440 kts | 340° |
| 2026-04-30 19:19 | -27.06265 | 115.88525 | 38124 ft | 440 kts | 340° |
| 2026-04-30 19:19 | -26.97096 | 115.87946 | 38122 ft | 440 kts | 341° |
| 2026-04-30 19:20 | -26.90977 | 115.87561 | 38125 ft | 440 kts | 340° |
| 2026-04-30 19:21 | -26.81801 | 115.86980 | 38122 ft | 440 kts | 341° |
| 2026-04-30 19:22 | -26.69552 | 115.86214 | 38116 ft | 441 kts | 341° |
| 2026-04-30 19:23 | -26.51150 | 115.85065 | 38114 ft | 442 kts | 341° |
| 2026-04-30 19:24 | -26.41936 | 115.84482 | 38115 ft | 442 kts | 341° |
| 2026-04-30 19:25 | -26.26603 | 115.83535 | 38107 ft | 443 kts | 341° |
| 2026-04-30 19:26 | -26.14287 | 115.82767 | 38114 ft | 443 kts | 341° |
| 2026-04-30 19:27 | -26.05047 | 115.82188 | 38109 ft | 443 kts | 341° |
| 2026-04-30 19:28 | -25.95758 | 115.81613 | 38108 ft | 444 kts | 341° |
| 2026-04-30 19:29 | -25.83460 | 115.80847 | 38104 ft | 444 kts | 341° |
| 2026-04-30 19:30 | -25.71117 | 115.80082 | 38100 ft | 444 kts | 341° |
| 2026-04-30 19:31 | -25.58766 | 115.79326 | 38097 ft | 444 kts | 341° |
| 2026-04-30 19:31 | -25.49498 | 115.78746 | 38095 ft | 445 kts | 341° |
| 2026-04-30 19:32 | -25.43321 | 115.78367 | 38099 ft | 445 kts | 342° |
| 2026-04-30 19:32 | -25.37135 | 115.77996 | 38092 ft | 445 kts | 342° |
| 2026-04-30 19:33 | -25.30949 | 115.77617 | 38087 ft | 445 kts | 342° |
| 2026-04-30 19:33 | -25.24768 | 115.77239 | 38085 ft | 445 kts | 342° |
| 2026-04-30 19:34 | -25.18585 | 115.76859 | 38086 ft | 445 kts | 342° |
| 2026-04-30 19:35 | -25.09352 | 115.76300 | 38078 ft | 445 kts | 342° |
| 2026-04-30 19:35 | -25.03169 | 115.75924 | 38078 ft | 445 kts | 342° |
| 2026-04-30 19:36 | -24.96992 | 115.75548 | 38084 ft | 445 kts | 342° |
| 2026-04-30 19:36 | -24.87727 | 115.74987 | 38080 ft | 444 kts | 342° |
| 2026-04-30 19:37 | -24.81558 | 115.74611 | 38079 ft | 444 kts | 342° |
| 2026-04-30 19:37 | -24.75388 | 115.74233 | 38083 ft | 444 kts | 342° |
| 2026-04-30 19:38 | -24.69225 | 115.73854 | 38078 ft | 444 kts | 342° |
| 2026-04-30 19:38 | -24.63058 | 115.73482 | 38078 ft | 443 kts | 342° |
| 2026-04-30 19:39 | -24.56897 | 115.73115 | 38078 ft | 443 kts | 343° |
| 2026-04-30 19:39 | -24.51738 | 115.72808 | 38080 ft | 443 kts | 343° |
| 2026-04-30 19:40 | -24.45594 | 115.72431 | 38081 ft | 442 kts | 343° |
| 2026-04-30 19:40 | -24.39447 | 115.72062 | 38080 ft | 442 kts | 343° |
| 2026-04-30 19:41 | -24.33300 | 115.71693 | 38078 ft | 442 kts | 343° |
| 2026-04-30 19:41 | -24.27165 | 115.71320 | 38073 ft | 441 kts | 343° |
| 2026-04-30 19:42 | -24.21076 | 115.70945 | 38068 ft | 441 kts | 343° |
| 2026-04-30 19:42 | -24.14913 | 115.70575 | 38071 ft | 441 kts | 343° |
| 2026-04-30 19:43 | -24.08827 | 115.70215 | 38071 ft | 440 kts | 343° |
| 2026-04-30 19:44 | -23.99659 | 115.69657 | 38067 ft | 440 kts | 343° |
| 2026-04-30 19:44 | -23.93549 | 115.69289 | 38069 ft | 440 kts | 343° |
| 2026-04-30 19:45 | -23.87439 | 115.68927 | 38069 ft | 439 kts | 343° |
| 2026-04-30 19:45 | -23.81338 | 115.68563 | 38055 ft | 439 kts | 344° |
| 2026-04-30 19:46 | -23.75230 | 115.68207 | 38053 ft | 439 kts | 344° |
| 2026-04-30 19:46 | -23.69125 | 115.67845 | 38051 ft | 439 kts | 344° |
| 2026-04-30 19:47 | -23.63028 | 115.67473 | 38060 ft | 439 kts | 344° |
| 2026-04-30 19:47 | -23.56930 | 115.67104 | 38046 ft | 439 kts | 344° |
| 2026-04-30 19:48 | -23.50837 | 115.66742 | 38051 ft | 438 kts | 344° |
| 2026-04-30 19:48 | -23.44742 | 115.66381 | 38053 ft | 438 kts | 345° |
| 2026-04-30 19:49 | -23.38649 | 115.66021 | 38049 ft | 438 kts | 345° |
| 2026-04-30 19:49 | -23.29511 | 115.65471 | 38046 ft | 438 kts | 345° |
| 2026-04-30 19:50 | -23.23425 | 115.65100 | 38047 ft | 438 kts | 345° |
| 2026-04-30 19:50 | -23.17333 | 115.64741 | 38043 ft | 438 kts | 345° |
| 2026-04-30 19:51 | -23.11242 | 115.64386 | 38040 ft | 438 kts | 345° |
| 2026-04-30 19:51 | -23.05149 | 115.64035 | 38035 ft | 438 kts | 345° |
| 2026-04-30 19:52 | -22.99060 | 115.63671 | 38031 ft | 438 kts | 345° |
| 2026-04-30 19:52 | -22.92973 | 115.63308 | 38029 ft | 438 kts | 345° |
| 2026-04-30 19:53 | -22.86882 | 115.62948 | 38024 ft | 439 kts | 345° |
| 2026-04-30 19:53 | -22.80785 | 115.62591 | 38025 ft | 439 kts | 345° |
| 2026-04-30 19:54 | -22.74688 | 115.62224 | 38021 ft | 439 kts | 345° |
| 2026-04-30 19:54 | -22.68587 | 115.61862 | 38021 ft | 439 kts | 346° |
| 2026-04-30 19:55 | -22.62483 | 115.61507 | 38023 ft | 439 kts | 346° |
| 2026-04-30 19:55 | -22.56374 | 115.61151 | 38017 ft | 440 kts | 346° |
| 2026-04-30 19:56 | -22.50266 | 115.60794 | 38014 ft | 440 kts | 346° |
| 2026-04-30 19:56 | -22.44153 | 115.60434 | 38013 ft | 440 kts | 346° |
| 2026-04-30 19:57 | -22.38029 | 115.60077 | 38009 ft | 441 kts | 346° |
| 2026-04-30 19:57 | -22.31899 | 115.59725 | 38011 ft | 441 kts | 346° |
| 2026-04-30 19:58 | -22.25770 | 115.59362 | 38009 ft | 441 kts | 346° |
| 2026-04-30 19:58 | -22.19634 | 115.59000 | 38002 ft | 442 kts | 346° |
| 2026-04-30 19:59 | -22.13492 | 115.58645 | 38004 ft | 442 kts | 346° |
| 2026-04-30 20:00 | -22.04263 | 115.58104 | 37999 ft | 443 kts | 346° |
| 2026-04-30 20:00 | -21.98099 | 115.57743 | 37992 ft | 444 kts | 346° |
| 2026-04-30 20:01 | -21.88838 | 115.57199 | 37992 ft | 445 kts | 347° |
| 2026-04-30 20:01 | -21.82647 | 115.56839 | 37993 ft | 445 kts | 347° |
| 2026-04-30 20:02 | -21.73355 | 115.56304 | 37993 ft | 446 kts | 347° |
| 2026-04-30 20:03 | -21.64049 | 115.55765 | 37992 ft | 447 kts | 347° |
| 2026-04-30 20:03 | -21.57834 | 115.55412 | 37993 ft | 447 kts | 347° |
| 2026-04-30 20:04 | -21.51620 | 115.55054 | 37998 ft | 447 kts | 347° |
| 2026-04-30 20:05 | -21.42325 | 115.54512 | 38002 ft | 448 kts | 347° |
| 2026-04-30 20:05 | -21.32981 | 115.53971 | 38000 ft | 448 kts | 347° |
| 2026-04-30 20:06 | -21.26749 | 115.53613 | 37993 ft | 449 kts | 347° |
| 2026-04-30 20:06 | -21.20511 | 115.53252 | 37999 ft | 449 kts | 348° |
| 2026-04-30 20:07 | -21.14267 | 115.52895 | 37994 ft | 449 kts | 348° |
| 2026-04-30 20:08 | -21.04896 | 115.52356 | 37997 ft | 450 kts | 348° |
| 2026-04-30 20:08 | -20.98641 | 115.51997 | 37999 ft | 450 kts | 348° |
| 2026-04-30 20:09 | -20.92381 | 115.51631 | 38000 ft | 450 kts | 348° |
| 2026-04-30 20:09 | -20.82987 | 115.51089 | 37997 ft | 451 kts | 348° |
| 2026-04-30 20:10 | -20.73577 | 115.50561 | 38001 ft | 451 kts | 348° |
| 2026-04-30 20:11 | -20.64160 | 115.50023 | 38005 ft | 452 kts | 348° |
| 2026-04-30 20:11 | -20.57887 | 115.49662 | 38001 ft | 452 kts | 348° |
| 2026-04-30 20:12 | -20.48469 | 115.49123 | 38008 ft | 452 kts | 348° |
| 2026-04-30 20:13 | -20.42182 | 115.48770 | 38003 ft | 452 kts | 348° |
| 2026-04-30 20:13 | -20.35898 | 115.48412 | 38003 ft | 452 kts | 348° |
| 2026-04-30 20:14 | -20.29617 | 115.48053 | 38011 ft | 452 kts | 348° |
| 2026-04-30 20:14 | -20.23329 | 115.47692 | 38017 ft | 452 kts | 348° |
| 2026-04-30 20:15 | -20.17048 | 115.47330 | 38012 ft | 452 kts | 348° |
| 2026-04-30 20:15 | -20.10764 | 115.46976 | 38014 ft | 452 kts | 348° |
| 2026-04-30 20:16 | -20.04526 | 115.46627 | 38013 ft | 452 kts | 348° |
| 2026-04-30 20:16 | -19.98250 | 115.46268 | 38011 ft | 451 kts | 348° |
| 2026-04-30 20:17 | -19.91974 | 115.45902 | 38013 ft | 451 kts | 348° |
| 2026-04-30 20:17 | -19.85704 | 115.45544 | 38009 ft | 451 kts | 349° |
| 2026-04-30 20:18 | -19.79425 | 115.45195 | 38013 ft | 451 kts | 349° |
| 2026-04-30 20:18 | -19.73146 | 115.44845 | 38011 ft | 451 kts | 349° |
| 2026-04-30 20:19 | -19.66881 | 115.44499 | 38012 ft | 451 kts | 349° |
| 2026-04-30 20:19 | -19.60616 | 115.44139 | 38014 ft | 451 kts | 349° |
| 2026-04-30 20:20 | -19.54353 | 115.43780 | 38011 ft | 451 kts | 349° |
| 2026-04-30 20:20 | -19.49147 | 115.43487 | 38011 ft | 451 kts | 349° |
| 2026-04-30 20:21 | -19.42887 | 115.43134 | 38015 ft | 450 kts | 349° |
| 2026-04-30 20:21 | -19.36624 | 115.42782 | 38012 ft | 450 kts | 349° |
| 2026-04-30 20:22 | -19.30364 | 115.42433 | 38016 ft | 450 kts | 349° |
| 2026-04-30 20:22 | -19.24106 | 115.42085 | 38016 ft | 450 kts | 349° |
| 2026-04-30 20:23 | -19.17849 | 115.41732 | 38013 ft | 450 kts | 349° |
| 2026-04-30 20:23 | -19.11592 | 115.41382 | 38015 ft | 450 kts | 349° |
| 2026-04-30 20:24 | -19.05328 | 115.41029 | 38015 ft | 450 kts | 349° |
| 2026-04-30 20:24 | -18.99075 | 115.40677 | 38013 ft | 450 kts | 349° |
| 2026-04-30 20:25 | -18.89697 | 115.40151 | 38014 ft | 450 kts | 349° |
| 2026-04-30 20:26 | -18.80318 | 115.39630 | 38015 ft | 450 kts | 349° |
| 2026-04-30 20:26 | -18.70941 | 115.39104 | 38016 ft | 449 kts | 349° |
| 2026-04-30 20:27 | -18.58457 | 115.38403 | 38015 ft | 449 kts | 350° |
| 2026-04-30 20:28 | -18.45973 | 115.37713 | 38018 ft | 449 kts | 350° |
| 2026-04-30 20:30 | -18.30387 | 115.36843 | 38014 ft | 449 kts | 350° |
| 2026-04-30 20:31 | -18.11727 | 115.35814 | 38015 ft | 448 kts | 350° |
| 2026-04-30 20:32 | -17.96137 | 115.34953 | 38015 ft | 449 kts | 350° |
| 2026-04-30 20:33 | -17.86783 | 115.34433 | 38013 ft | 449 kts | 350° |
| 2026-04-30 20:34 | -17.77430 | 115.33910 | 38012 ft | 449 kts | 350° |
| 2026-04-30 20:35 | -17.68078 | 115.33400 | 38015 ft | 449 kts | 351° |
| 2026-04-30 20:35 | -17.58726 | 115.32878 | 38016 ft | 449 kts | 351° |
| 2026-04-30 20:36 | -17.52481 | 115.32541 | 38016 ft | 449 kts | 351° |
| 2026-04-30 20:37 | -17.43120 | 115.32026 | 38013 ft | 449 kts | 351° |
| 2026-04-30 20:37 | -17.36878 | 115.31682 | 38011 ft | 449 kts | 351° |
| 2026-04-30 20:38 | -17.30634 | 115.31340 | 38011 ft | 449 kts | 351° |
| 2026-04-30 20:38 | -17.24384 | 115.30999 | 38010 ft | 449 kts | 351° |
| 2026-04-30 20:39 | -17.15011 | 115.30481 | 38009 ft | 449 kts | 351° |
| 2026-04-30 20:40 | -17.05669 | 115.29962 | 38013 ft | 450 kts | 351° |
| 2026-04-30 20:40 | -16.99417 | 115.29627 | 38013 ft | 450 kts | 351° |
| 2026-04-30 20:41 | -16.90038 | 115.29119 | 38010 ft | 450 kts | 351° |
| 2026-04-30 20:41 | -16.83780 | 115.28773 | 38006 ft | 450 kts | 351° |
| 2026-04-30 20:42 | -16.77529 | 115.28433 | 38013 ft | 450 kts | 351° |
| 2026-04-30 20:43 | -16.68137 | 115.27920 | 38012 ft | 450 kts | 352° |
| 2026-04-30 20:43 | -16.61884 | 115.27579 | 38005 ft | 450 kts | 352° |
| 2026-04-30 20:44 | -16.52498 | 115.27063 | 38003 ft | 450 kts | 352° |
| 2026-04-30 20:45 | -16.39986 | 115.26385 | 38000 ft | 450 kts | 352° |
| 2026-04-30 20:45 | -16.33723 | 115.26041 | 38004 ft | 450 kts | 352° |
| 2026-04-30 20:46 | -16.21206 | 115.25370 | 38006 ft | 450 kts | 352° |
| 2026-04-30 20:47 | -16.11848 | 115.24855 | 38003 ft | 450 kts | 352° |
| 2026-04-30 20:48 | -16.02455 | 115.24342 | 38001 ft | 451 kts | 352° |
| 2026-04-30 20:48 | -15.96187 | 115.24011 | 37994 ft | 451 kts | 352° |
| 2026-04-30 20:49 | -15.89926 | 115.23666 | 37994 ft | 451 kts | 352° |
| 2026-04-30 20:50 | -15.80526 | 115.23154 | 37999 ft | 451 kts | 352° |
| 2026-04-30 20:50 | -15.74261 | 115.22822 | 37995 ft | 451 kts | 352° |
| 2026-04-30 20:51 | -15.67990 | 115.22482 | 37996 ft | 451 kts | 352° |
| 2026-04-30 20:51 | -15.58583 | 115.21973 | 37993 ft | 451 kts | 352° |
| 2026-04-30 20:52 | -15.52307 | 115.21641 | 37994 ft | 451 kts | 352° |
| 2026-04-30 20:53 | -15.42896 | 115.21134 | 37990 ft | 451 kts | 352° |
| 2026-04-30 20:53 | -15.36614 | 115.20787 | 37987 ft | 452 kts | 352° |
| 2026-04-30 20:54 | -15.27192 | 115.20272 | 37989 ft | 452 kts | 353° |
| 2026-04-30 20:55 | -15.17765 | 115.19773 | 37988 ft | 452 kts | 353° |
| 2026-04-30 20:55 | -15.11474 | 115.19441 | 37986 ft | 452 kts | 353° |
| 2026-04-30 20:56 | -15.02027 | 115.18932 | 37984 ft | 453 kts | 353° |
| 2026-04-30 20:57 | -14.92583 | 115.18421 | 37981 ft | 453 kts | 353° |
| 2026-04-30 20:57 | -14.86273 | 115.18078 | 37978 ft | 454 kts | 353° |
| 2026-04-30 20:58 | -14.76806 | 115.17577 | 37976 ft | 454 kts | 353° |
| 2026-04-30 20:58 | -14.70492 | 115.17243 | 37976 ft | 455 kts | 353° |
| 2026-04-30 20:59 | -14.61011 | 115.16733 | 37976 ft | 455 kts | 353° |
| 2026-04-30 21:00 | -14.48397 | 115.16055 | 37972 ft | 456 kts | 353° |
| 2026-04-30 21:01 | -14.39914 | 115.15606 | 37973 ft | 456 kts | 353° |
| 2026-04-30 21:02 | -14.30405 | 115.15105 | 37973 ft | 456 kts | 353° |
| 2026-04-30 21:02 | -14.24071 | 115.14762 | 37972 ft | 456 kts | 353° |
| 2026-04-30 21:03 | -14.17869 | 115.13753 | 37971 ft | 448 kts | 336° |
| 2026-04-30 21:03 | -14.15071 | 115.12407 | 37967 ft | 442 kts | 325° |
| 2026-04-30 21:03 | -14.12605 | 115.10553 | 37966 ft | 437 kts | 314° |
| 2026-04-30 21:04 | -14.08908 | 115.05703 | 37959 ft | 430 kts | 297° |
| 2026-04-30 21:04 | -14.04397 | 114.97702 | 37958 ft | 431 kts | 298° |
| 2026-04-30 21:05 | -14.01384 | 114.92362 | 37961 ft | 432 kts | 297° |
| 2026-04-30 21:05 | -13.98367 | 114.87010 | 37960 ft | 432 kts | 297° |
| 2026-04-30 21:06 | -13.95345 | 114.81655 | 37961 ft | 433 kts | 298° |
| 2026-04-30 21:06 | -13.92314 | 114.76300 | 37966 ft | 433 kts | 298° |
| 2026-04-30 21:07 | -13.89279 | 114.70943 | 37966 ft | 433 kts | 298° |
| 2026-04-30 21:07 | -13.86247 | 114.65579 | 37972 ft | 433 kts | 297° |
| 2026-04-30 21:08 | -13.83240 | 114.60249 | 37974 ft | 434 kts | 298° |
| 2026-04-30 21:08 | -13.80182 | 114.54852 | 37970 ft | 434 kts | 298° |
| 2026-04-30 21:09 | -13.77160 | 114.49522 | 37973 ft | 434 kts | 298° |
| 2026-04-30 21:09 | -13.74114 | 114.44164 | 37973 ft | 434 kts | 298° |
| 2026-04-30 21:10 | -13.71063 | 114.38804 | 37977 ft | 434 kts | 298° |
| 2026-04-30 21:10 | -13.68013 | 114.33442 | 37973 ft | 434 kts | 298° |
| 2026-04-30 21:11 | -13.64975 | 114.28074 | 37977 ft | 434 kts | 298° |
| 2026-04-30 21:11 | -13.61926 | 114.22697 | 37972 ft | 435 kts | 298° |
| 2026-04-30 21:12 | -13.58867 | 114.17335 | 37971 ft | 435 kts | 298° |
| 2026-04-30 21:12 | -13.55806 | 114.11977 | 37972 ft | 435 kts | 298° |
| 2026-04-30 21:13 | -13.52740 | 114.06617 | 37970 ft | 435 kts | 298° |
| 2026-04-30 21:13 | -13.49682 | 114.01244 | 37973 ft | 435 kts | 298° |
| 2026-04-30 21:14 | -13.46627 | 113.95874 | 37970 ft | 435 kts | 298° |
| 2026-04-30 21:14 | -13.43560 | 113.90504 | 37967 ft | 436 kts | 298° |
| 2026-04-30 21:15 | -13.40492 | 113.85135 | 37967 ft | 436 kts | 298° |
| 2026-04-30 21:15 | -13.37426 | 113.79766 | 37968 ft | 436 kts | 298° |
| 2026-04-30 21:16 | -13.34354 | 113.74389 | 37970 ft | 436 kts | 298° |
| 2026-04-30 21:16 | -13.31275 | 113.69019 | 37967 ft | 436 kts | 298° |
| 2026-04-30 21:17 | -13.28194 | 113.63652 | 37970 ft | 437 kts | 298° |
| 2026-04-30 21:17 | -13.25110 | 113.58281 | 37969 ft | 437 kts | 298° |
| 2026-04-30 21:18 | -13.22035 | 113.52904 | 37970 ft | 437 kts | 298° |
| 2026-04-30 21:18 | -13.18954 | 113.47527 | 37973 ft | 437 kts | 298° |
| 2026-04-30 21:19 | -13.15873 | 113.42155 | 37974 ft | 437 kts | 298° |
| 2026-04-30 21:19 | -13.12782 | 113.36791 | 37975 ft | 437 kts | 299° |
| 2026-04-30 21:20 | -13.09687 | 113.31432 | 37975 ft | 437 kts | 299° |
| 2026-04-30 21:20 | -13.06602 | 113.26069 | 37974 ft | 436 kts | 298° |
| 2026-04-30 21:21 | -13.03539 | 113.20730 | 37977 ft | 436 kts | 298° |
| 2026-04-30 21:22 | -12.98915 | 113.12692 | 37976 ft | 436 kts | 299° |
| 2026-04-30 21:23 | -12.92730 | 113.01983 | 37970 ft | 436 kts | 299° |
| 2026-04-30 21:23 | -12.88094 | 112.93948 | 37971 ft | 436 kts | 299° |
| 2026-04-30 21:24 | -12.84999 | 112.88598 | 37972 ft | 436 kts | 299° |
| 2026-04-30 21:24 | -12.81911 | 112.83249 | 37970 ft | 436 kts | 299° |
| 2026-04-30 21:25 | -12.77266 | 112.75220 | 37973 ft | 436 kts | 299° |
| 2026-04-30 21:26 | -12.72623 | 112.67190 | 37966 ft | 436 kts | 299° |
| 2026-04-30 21:27 | -12.67974 | 112.59171 | 37966 ft | 437 kts | 299° |
| 2026-04-30 21:27 | -12.64873 | 112.53828 | 37969 ft | 437 kts | 299° |
| 2026-04-30 21:28 | -12.60221 | 112.45810 | 37967 ft | 437 kts | 299° |
| 2026-04-30 21:29 | -12.55571 | 112.37789 | 37964 ft | 437 kts | 299° |
| 2026-04-30 21:30 | -12.47798 | 112.24444 | 37965 ft | 437 kts | 299° |
| 2026-04-30 21:31 | -12.40026 | 112.11087 | 37968 ft | 437 kts | 299° |
| 2026-04-30 21:32 | -12.35357 | 112.03084 | 37964 ft | 437 kts | 299° |
| 2026-04-30 21:32 | -12.32264 | 111.97785 | 37965 ft | 437 kts | 300° |
| 2026-04-30 21:33 | -12.27568 | 111.89757 | 37965 ft | 437 kts | 300° |
| 2026-04-30 21:34 | -12.24480 | 111.84460 | 37967 ft | 436 kts | 300° |
| 2026-04-30 21:34 | -12.19808 | 111.76472 | 37962 ft | 436 kts | 300° |
| 2026-04-30 21:35 | -12.16688 | 111.71145 | 37961 ft | 436 kts | 300° |
| 2026-04-30 21:35 | -12.13580 | 111.65824 | 37962 ft | 436 kts | 300° |
| 2026-04-30 21:36 | -12.10461 | 111.60495 | 37958 ft | 436 kts | 300° |
| 2026-04-30 21:37 | -12.04221 | 111.49858 | 37960 ft | 437 kts | 300° |
| 2026-04-30 21:37 | -12.01066 | 111.44552 | 37955 ft | 437 kts | 304° |
| 2026-04-30 21:38 | -11.96858 | 111.40087 | 37955 ft | 439 kts | 320° |
| 2026-04-30 21:38 | -11.92045 | 111.36173 | 37950 ft | 440 kts | 320° |
| 2026-04-30 21:39 | -11.87292 | 111.32305 | 37950 ft | 440 kts | 320° |
| 2026-04-30 21:39 | -11.82505 | 111.28404 | 37951 ft | 440 kts | 320° |
| 2026-04-30 21:40 | -11.77714 | 111.24501 | 37953 ft | 440 kts | 320° |
| 2026-04-30 21:40 | -11.72922 | 111.20603 | 37966 ft | 441 kts | 320° |
| 2026-04-30 21:41 | -11.68126 | 111.16705 | 37958 ft | 441 kts | 320° |
| 2026-04-30 21:41 | -11.63330 | 111.12809 | 37958 ft | 440 kts | 320° |
| 2026-04-30 21:42 | -11.58543 | 111.08912 | 37964 ft | 440 kts | 320° |
| 2026-04-30 21:42 | -11.54526 | 111.05652 | 37967 ft | 440 kts | 320° |
| 2026-04-30 21:43 | -11.49740 | 111.01765 | 37965 ft | 440 kts | 320° |
| 2026-04-30 21:43 | -11.44953 | 110.97877 | 37954 ft | 440 kts | 320° |
| 2026-04-30 21:44 | -11.40167 | 110.93998 | 37960 ft | 439 kts | 320° |
| 2026-04-30 21:44 | -11.35384 | 110.90129 | 37960 ft | 439 kts | 320° |
| 2026-04-30 21:45 | -11.30605 | 110.86258 | 37962 ft | 439 kts | 320° |
| 2026-04-30 21:45 | -11.25831 | 110.82391 | 37963 ft | 438 kts | 320° |
| 2026-04-30 21:46 | -11.21060 | 110.78522 | 37959 ft | 438 kts | 320° |
| 2026-04-30 21:46 | -11.16294 | 110.74663 | 37958 ft | 438 kts | 320° |
| 2026-04-30 21:47 | -11.11527 | 110.70809 | 37957 ft | 437 kts | 321° |
| 2026-04-30 21:47 | -11.06760 | 110.66958 | 37961 ft | 437 kts | 321° |
| 2026-04-30 21:48 | -11.01987 | 110.63110 | 37956 ft | 437 kts | 321° |
| 2026-04-30 21:48 | -10.97223 | 110.59258 | 37962 ft | 437 kts | 321° |
| 2026-04-30 21:49 | -10.92502 | 110.55432 | 37957 ft | 437 kts | 321° |
| 2026-04-30 21:49 | -10.87744 | 110.51585 | 37951 ft | 437 kts | 321° |
| 2026-04-30 21:50 | -10.82980 | 110.47739 | 37950 ft | 437 kts | 321° |
| 2026-04-30 21:50 | -10.78215 | 110.43904 | 37949 ft | 437 kts | 321° |
| 2026-04-30 21:51 | -10.73453 | 110.40070 | 37946 ft | 437 kts | 321° |
| 2026-04-30 21:51 | -10.68691 | 110.36227 | 37949 ft | 437 kts | 321° |
| 2026-04-30 21:52 | -10.63894 | 110.32361 | 37953 ft | 437 kts | 322° |
| 2026-04-30 21:52 | -10.59161 | 110.28550 | 37953 ft | 437 kts | 322° |
| 2026-04-30 21:53 | -10.54395 | 110.24713 | 37948 ft | 437 kts | 322° |
| 2026-04-30 21:53 | -10.49628 | 110.20874 | 37949 ft | 437 kts | 322° |
| 2026-04-30 21:54 | -10.44852 | 110.17042 | 37950 ft | 437 kts | 322° |
| 2026-04-30 21:54 | -10.40075 | 110.13207 | 37945 ft | 438 kts | 322° |
| 2026-04-30 21:55 | -10.35299 | 110.09366 | 37944 ft | 438 kts | 322° |
| 2026-04-30 21:55 | -10.30524 | 110.05526 | 37943 ft | 438 kts | 322° |
| 2026-04-30 21:56 | -10.25747 | 110.01684 | 37934 ft | 438 kts | 322° |
| 2026-04-30 21:56 | -10.20964 | 109.97842 | 37935 ft | 439 kts | 322° |
| 2026-04-30 21:57 | -10.16178 | 109.93997 | 37936 ft | 439 kts | 323° |
| 2026-04-30 21:57 | -10.11384 | 109.90156 | 37941 ft | 439 kts | 323° |
| 2026-04-30 21:58 | -10.06588 | 109.86314 | 37936 ft | 440 kts | 323° |
| 2026-04-30 21:58 | -10.01781 | 109.82461 | 37936 ft | 440 kts | 323° |
| 2026-04-30 21:59 | -9.96973 | 109.78610 | 37937 ft | 440 kts | 323° |
| 2026-04-30 22:00 | -9.89762 | 109.72832 | 37939 ft | 441 kts | 323° |
| 2026-04-30 22:00 | -9.82535 | 109.67050 | 37939 ft | 441 kts | 323° |
| 2026-04-30 22:01 | -9.77707 | 109.63195 | 37936 ft | 441 kts | 323° |
| 2026-04-30 22:01 | -9.72878 | 109.59337 | 37937 ft | 442 kts | 323° |
| 2026-04-30 22:02 | -9.68049 | 109.55470 | 37923 ft | 443 kts | 322° |
| 2026-04-30 22:02 | -9.63217 | 109.51602 | 37925 ft | 443 kts | 323° |
| 2026-04-30 22:03 | -9.58368 | 109.47732 | 37926 ft | 444 kts | 323° |
| 2026-04-30 22:03 | -9.53539 | 109.43882 | 37930 ft | 444 kts | 323° |
| 2026-04-30 22:04 | -9.48653 | 109.39977 | 37934 ft | 445 kts | 323° |
| 2026-04-30 22:05 | -9.41392 | 109.34187 | 37936 ft | 445 kts | 323° |
| 2026-04-30 22:05 | -9.36527 | 109.30303 | 37932 ft | 445 kts | 323° |
| 2026-04-30 22:06 | -9.31650 | 109.26426 | 37931 ft | 446 kts | 322° |
| 2026-04-30 22:06 | -9.24336 | 109.20592 | 37929 ft | 446 kts | 323° |
| 2026-04-30 22:07 | -9.19458 | 109.16699 | 37921 ft | 447 kts | 323° |
| 2026-04-30 22:07 | -9.14559 | 109.12804 | 37924 ft | 448 kts | 323° |
| 2026-04-30 22:08 | -9.09658 | 109.08911 | 37932 ft | 448 kts | 322° |
| 2026-04-30 22:08 | -9.04753 | 109.05012 | 37925 ft | 449 kts | 323° |
| 2026-04-30 22:09 | -8.99842 | 109.01101 | 37926 ft | 449 kts | 323° |
| 2026-04-30 22:09 | -8.94929 | 108.97198 | 37928 ft | 449 kts | 323° |
| 2026-04-30 22:10 | -8.90009 | 108.93297 | 37932 ft | 450 kts | 323° |
| 2026-04-30 22:10 | -8.85084 | 108.89388 | 37928 ft | 450 kts | 323° |
| 2026-04-30 22:11 | -8.77689 | 108.83504 | 37934 ft | 451 kts | 323° |
| 2026-04-30 22:12 | -8.72745 | 108.79589 | 37930 ft | 452 kts | 323° |
| 2026-04-30 22:12 | -8.67795 | 108.75664 | 37934 ft | 452 kts | 323° |
| 2026-04-30 22:13 | -8.62842 | 108.71737 | 37933 ft | 453 kts | 323° |
| 2026-04-30 22:13 | -8.57887 | 108.67808 | 37936 ft | 453 kts | 323° |
| 2026-04-30 22:14 | -8.52921 | 108.63874 | 37933 ft | 453 kts | 323° |
| 2026-04-30 22:14 | -8.47956 | 108.59934 | 37928 ft | 454 kts | 322° |
| 2026-04-30 22:15 | -8.42983 | 108.56001 | 37936 ft | 454 kts | 323° |
| 2026-04-30 22:15 | -8.38040 | 108.52092 | 37935 ft | 454 kts | 323° |
| 2026-04-30 22:16 | -8.33032 | 108.48126 | 37936 ft | 455 kts | 323° |
| 2026-04-30 22:17 | -8.23098 | 108.40254 | 37926 ft | 456 kts | 323° |
| 2026-04-30 22:17 | -8.15600 | 108.34335 | 37932 ft | 456 kts | 322° |
| 2026-04-30 22:18 | -8.08189 | 108.28479 | 37934 ft | 435 kts | 322° |
| 2026-04-30 22:19 | -8.03294 | 108.25280 | 37928 ft | 412 kts | 342° |
| 2026-04-30 22:19 | -8.00523 | 108.24654 | 37938 ft | 407 kts | 358° |
| 2026-04-30 22:19 | -7.95065 | 108.25719 | 37936 ft | 402 kts | 29° |
| 2026-04-30 22:20 | -7.92773 | 108.27312 | 37936 ft | 401 kts | 44° |
| 2026-04-30 22:20 | -7.89800 | 108.31973 | 37933 ft | 399 kts | 74° |
| 2026-04-30 22:20 | -7.89322 | 108.34718 | 37938 ft | 398 kts | 89° |
| 2026-04-30 22:21 | -7.89582 | 108.37492 | 37939 ft | 398 kts | 104° |
| 2026-04-30 22:21 | -7.90551 | 108.40096 | 37918 ft | 397 kts | 119° |
| 2026-04-30 22:21 | -7.92157 | 108.42350 | 37921 ft | 397 kts | 134° |
| 2026-04-30 22:21 | -7.94154 | 108.44279 | 37917 ft | 398 kts | 138° |
| 2026-04-30 22:22 | -7.98464 | 108.47792 | 37913 ft | 399 kts | 142° |
| 2026-04-30 22:22 | -8.02162 | 108.50604 | 37917 ft | 400 kts | 142° |
| 2026-04-30 22:23 | -8.04518 | 108.52096 | 37912 ft | 401 kts | 155° |
| 2026-04-30 22:23 | -8.07170 | 108.52951 | 37914 ft | 402 kts | 170° |
| 2026-04-30 22:23 | -8.09958 | 108.53089 | 37910 ft | 403 kts | 185° |
| 2026-04-30 22:23 | -8.12687 | 108.52476 | 37910 ft | 404 kts | 201° |
| 2026-04-30 22:24 | -8.15156 | 108.51134 | 37905 ft | 405 kts | 217° |
| 2026-04-30 22:24 | -8.17177 | 108.49166 | 37898 ft | 406 kts | 233° |
| 2026-04-30 22:24 | -8.18609 | 108.46722 | 37899 ft | 406 kts | 248° |
| 2026-04-30 22:24 | -8.19350 | 108.43979 | 37899 ft | 406 kts | 264° |
| 2026-04-30 22:25 | -8.19337 | 108.41137 | 37892 ft | 406 kts | 280° |
| 2026-04-30 22:25 | -8.18564 | 108.38401 | 37893 ft | 405 kts | 296° |
| 2026-04-30 22:25 | -8.17102 | 108.35989 | 37895 ft | 404 kts | 311° |
| 2026-04-30 22:25 | -8.15139 | 108.33970 | 37900 ft | 404 kts | 319° |
| 2026-04-30 22:26 | -8.08551 | 108.28616 | 37902 ft | 407 kts | 323° |
| 2026-04-30 22:27 | -8.03823 | 108.25505 | 37906 ft | 405 kts | 341° |
| 2026-04-30 22:27 | -8.01096 | 108.24873 | 37909 ft | 403 kts | 358° |
| 2026-04-30 22:27 | -7.95725 | 108.26010 | 37910 ft | 397 kts | 31° |
| 2026-04-30 22:28 | -7.91919 | 108.29897 | 37901 ft | 393 kts | 64° |
| 2026-04-30 22:28 | -7.91008 | 108.32476 | 37907 ft | 392 kts | 81° |
| 2026-04-30 22:29 | -7.92785 | 108.40287 | 37941 ft | 396 kts | 128° |
| 2026-04-30 22:29 | -7.94705 | 108.42289 | 37943 ft | 399 kts | 137° |
| 2026-04-30 22:31 | -8.11429 | 108.50870 | 37932 ft | 404 kts | 194° |
| 2026-04-30 22:32 | -8.17767 | 108.45666 | 37906 ft | 405 kts | 246° |
| 2026-04-30 22:32 | -8.18558 | 108.40105 | 37936 ft | 409 kts | 281° |
| 2026-04-30 22:33 | -8.14072 | 108.33045 | 37935 ft | 409 kts | 320° |
| 2026-04-30 22:33 | -8.09637 | 108.29441 | 37934 ft | 409 kts | 323° |
| 2026-04-30 22:34 | -8.02432 | 108.25068 | 37929 ft | 405 kts | 349° |
| 2026-04-30 22:35 | -7.96925 | 108.25395 | 37915 ft | 399 kts | 22° |
| 2026-04-30 22:36 | -7.90677 | 108.33795 | 37906 ft | 391 kts | 88° |
| 2026-04-30 22:36 | -7.90870 | 108.36522 | 37906 ft | 391 kts | 104° |
| 2026-04-30 22:37 | -7.95459 | 108.43225 | 37934 ft | 399 kts | 139° |
| 2026-04-30 22:37 | -7.97598 | 108.45015 | 37933 ft | 400 kts | 141° |
| 2026-04-30 22:38 | -8.06881 | 108.51066 | 37937 ft | 401 kts | 167° |
| 2026-04-30 22:38 | -8.12363 | 108.50799 | 37924 ft | 403 kts | 200° |
| 2026-04-30 22:39 | -8.14841 | 108.49479 | 37918 ft | 404 kts | 217° |
| 2026-04-30 22:39 | -8.18736 | 108.42211 | 37916 ft | 404 kts | 269° |
| 2026-04-30 22:40 | -8.15669 | 108.34516 | 37942 ft | 406 kts | 317° |
| 2026-04-30 22:41 | -8.04502 | 108.25800 | 37927 ft | 406 kts | 337° |
| 2026-04-30 22:42 | -7.94057 | 108.27130 | 37918 ft | 395 kts | 43° |
| 2026-04-30 22:43 | -7.91139 | 108.31709 | 37909 ft | 392 kts | 76° |
| 2026-04-30 22:43 | -7.91148 | 108.37168 | 37943 ft | 395 kts | 108° |
| 2026-04-30 22:44 | -7.94084 | 108.41791 | 37941 ft | 398 kts | 136° |
| 2026-04-30 22:45 | -8.07714 | 108.51090 | 37942 ft | 401 kts | 172° |
| 2026-04-30 22:46 | -8.13173 | 108.50346 | 37919 ft | 401 kts | 205° |
| 2026-04-30 22:47 | -8.18696 | 108.41255 | 37938 ft | 406 kts | 274° |
| 2026-04-30 22:47 | -8.16894 | 108.35938 | 37937 ft | 406 kts | 308° |
| 2026-04-30 22:48 | -8.12840 | 108.31987 | 37936 ft | 407 kts | 321° |
| 2026-04-30 22:49 | -7.98119 | 108.25086 | 37924 ft | 399 kts | 15° |
| 2026-04-30 22:50 | -7.90995 | 108.32674 | 37911 ft | 391 kts | 82° |
| 2026-04-30 22:51 | -7.91560 | 108.38054 | 37906 ft | 390 kts | 114° |
| 2026-04-30 22:51 | -7.94853 | 108.42363 | 37903 ft | 392 kts | 137° |
| 2026-04-30 22:52 | -7.96922 | 108.44156 | 37907 ft | 393 kts | 140° |
| 2026-04-30 22:53 | -8.05911 | 108.50506 | 37910 ft | 397 kts | 161° |
| 2026-04-30 22:53 | -8.11366 | 108.50844 | 37904 ft | 399 kts | 194° |
| 2026-04-30 22:53 | -8.13942 | 108.49817 | 37907 ft | 399 kts | 211° |
| 2026-04-30 22:54 | -8.17678 | 108.45766 | 37914 ft | 401 kts | 245° |
| 2026-04-30 22:55 | -8.17787 | 108.37514 | 37943 ft | 405 kts | 297° |
| 2026-04-30 22:55 | -8.14220 | 108.33175 | 37940 ft | 405 kts | 319° |
| 2026-04-30 22:56 | -8.09843 | 108.29586 | 37937 ft | 406 kts | 323° |
| 2026-04-30 22:56 | -8.02694 | 108.25147 | 37921 ft | 403 kts | 348° |
| 2026-04-30 22:57 | -7.97238 | 108.25363 | 37918 ft | 397 kts | 21° |
| 2026-04-30 22:57 | -7.92857 | 108.28566 | 37914 ft | 393 kts | 55° |
| 2026-04-30 22:58 | -7.90948 | 108.33630 | 37914 ft | 390 kts | 88° |
| 2026-04-30 22:59 | -7.93709 | 108.41140 | 37942 ft | 396 kts | 135° |
| 2026-04-30 22:59 | -8.00068 | 108.46510 | 37941 ft | 398 kts | 142° |